createdAt,value
2023-04-28T00:01:54.570Z,32.72
2023-04-28T00:04:22.261Z,38.45
2023-04-28T00:06:49.595Z,38.67
2023-04-28T00:09:16.823Z,37.63
2023-04-28T00:11:47.098Z,38.85
2023-04-28T00:14:14.433Z,42.75
2023-04-28T00:16:41.895Z,42.40
2023-04-28T00:19:09.501Z,42.72
2023-04-28T00:21:36.691Z,44.45
2023-04-28T00:24:04.134Z,45.65
2023-04-28T00:26:31.197Z,41.30
2023-04-28T00:28:58.259Z,40.20
2023-04-28T00:31:52.369Z,41.22
2023-04-28T00:34:29.495Z,40.15
2023-04-28T00:36:56.609Z,42.28
2023-04-28T00:39:23.728Z,40.60
2023-04-28T00:41:50.912Z,40.95
2023-04-28T00:44:18.210Z,36.20
2023-04-28T00:46:52.224Z,38.78
2023-04-28T00:49:19.642Z,38.55
2023-04-28T00:51:49.466Z,35.05
2023-04-28T00:54:16.828Z,37.72
2023-04-28T00:56:44.966Z,35.63
2023-04-28T00:59:12.066Z,38.15
2023-04-28T01:01:41.546Z,31.73
2023-04-28T01:04:08.877Z,38.63
2023-04-28T01:06:36.456Z,32.55
2023-04-28T01:09:12.172Z,29.92
2023-04-28T01:11:39.518Z,31.08
2023-04-28T01:14:06.851Z,29.48
2023-04-28T01:16:34.579Z,25.15
2023-04-28T01:19:01.877Z,26.73
2023-04-28T01:21:30.532Z,34.50
2023-04-28T01:24:01.293Z,30.42
2023-04-28T01:26:28.377Z,26.25
2023-04-28T01:28:56.160Z,26.38
2023-04-28T01:31:23.262Z,29.30
2023-04-28T01:33:50.353Z,33.20
2023-04-28T01:36:17.387Z,35.80
2023-04-28T01:38:44.427Z,34.25
2023-04-28T01:41:11.473Z,32.55
2023-04-28T01:43:38.712Z,35.83
2023-04-28T01:46:05.888Z,35.35
2023-04-28T01:48:33.137Z,36.08
2023-04-28T01:51:00.416Z,29.33
2023-04-28T01:53:27.469Z,33.25
2023-04-28T01:55:54.601Z,28.67
2023-04-28T01:58:21.759Z,31.20
2023-04-28T02:00:48.803Z,30.58
2023-04-28T02:03:16.432Z,29.98
2023-04-28T02:05:43.651Z,36.15
2023-04-28T02:08:10.834Z,29.98
2023-04-28T02:10:37.985Z,28.35
2023-04-28T02:13:05.157Z,33.17
2023-04-28T02:15:32.413Z,34.53
2023-04-28T02:17:59.647Z,30.50
2023-04-28T02:20:29.376Z,32.38
2023-04-28T02:25:24.317Z,27.05
2023-04-28T02:27:51.408Z,25.27
2023-04-28T02:30:18.583Z,28.48
2023-04-28T02:32:45.874Z,29.40
2023-04-28T02:35:13.043Z,24.30
2023-04-28T02:37:40.243Z,27.40
2023-04-28T02:40:08.012Z,29.83
2023-04-28T02:42:35.283Z,27.95
2023-04-28T02:45:02.603Z,28.90
2023-04-28T02:47:29.700Z,29.67
2023-04-28T02:49:56.762Z,28.60
2023-04-28T02:52:23.869Z,27.80
2023-04-28T02:54:54.615Z,28.88
2023-04-28T02:57:21.668Z,29.63
2023-04-28T02:59:48.702Z,26.20
2023-04-28T03:02:16.086Z,29.15
2023-04-28T03:04:43.232Z,26.73
2023-04-28T03:07:10.368Z,22.95
2023-04-28T03:09:37.485Z,21.63
2023-04-28T03:12:04.664Z,20.30
2023-04-28T03:14:31.737Z,23.80
2023-04-28T03:16:59.005Z,20.80
2023-04-28T03:19:26.767Z,20.92
2023-04-28T03:21:53.836Z,22.17
2023-04-28T03:24:21.186Z,24.25
2023-04-28T03:26:48.269Z,24.05
2023-04-28T03:29:15.332Z,27.17
2023-04-28T03:31:42.479Z,21.83
2023-04-28T03:34:11.988Z,23.50
2023-04-28T03:36:39.101Z,27.70
2023-04-28T03:39:06.332Z,24.00
2023-04-28T03:41:34.081Z,26.63
2023-04-28T03:44:01.199Z,27.33
2023-04-28T03:46:29.649Z,27.00
2023-04-28T03:48:57.376Z,22.95
2023-04-28T03:51:24.433Z,25.02
2023-04-28T03:53:51.501Z,24.55
2023-04-28T03:56:18.589Z,24.88
2023-04-28T03:58:45.774Z,28.77
2023-04-28T04:01:12.830Z,33.83
2023-04-28T04:03:40.112Z,30.15
2023-04-28T04:06:07.627Z,40.30
2023-04-28T04:08:34.674Z,44.05
2023-04-28T04:11:01.740Z,53.65
2023-04-28T04:13:28.696Z,42.20
2023-04-28T04:15:55.818Z,41.72
2023-04-28T04:18:23.003Z,31.63
2023-04-28T04:20:50.687Z,36.22
2023-04-28T04:23:17.656Z,33.83
2023-04-28T04:25:44.729Z,44.28
2023-04-28T04:28:11.849Z,52.03
2023-04-28T04:30:39.128Z,56.78
2023-04-28T04:33:06.254Z,59.40
2023-04-28T04:35:33.413Z,60.95
2023-04-28T04:38:01.857Z,53.63
2023-04-28T04:40:28.901Z,41.58
2023-04-28T04:42:55.998Z,41.72
2023-04-28T04:45:23.036Z,36.72
2023-04-28T04:47:50.296Z,38.60
2023-04-28T04:50:17.941Z,40.40
2023-04-28T04:52:47.548Z,44.75
2023-04-28T04:55:14.600Z,42.70
2023-04-28T04:57:41.693Z,42.08
2023-04-28T05:00:09.957Z,44.22
2023-04-28T05:02:37.391Z,39.53
2023-04-28T05:05:19.877Z,39.50
2023-04-28T05:07:48.753Z,39.97
2023-04-28T05:10:16.071Z,43.63
2023-04-28T05:12:46.813Z,40.67
2023-04-28T05:15:17.776Z,58.13
2023-04-28T05:17:45.269Z,49.55
2023-04-28T05:20:13.816Z,46.03
2023-04-28T05:22:41.627Z,39.20
2023-04-28T05:25:09.515Z,39.60
2023-04-28T05:27:39.595Z,39.40
2023-04-28T05:30:10.650Z,34.88
2023-04-28T05:32:38.125Z,35.22
2023-04-28T05:35:05.606Z,34.42
2023-04-28T05:37:40.559Z,30.65
2023-04-28T05:40:08.258Z,29.27
2023-04-28T05:42:35.312Z,31.58
2023-04-28T05:45:02.993Z,29.90
2023-04-28T05:47:32.111Z,28.05
2023-04-28T05:49:59.192Z,31.92
2023-04-28T05:52:30.632Z,38.97
2023-04-28T05:54:57.913Z,29.52
2023-04-28T05:57:25.106Z,34.33
2023-04-28T05:59:52.203Z,33.05
2023-04-28T06:02:21.892Z,25.05
2023-04-28T06:07:23.136Z,30.52
2023-04-28T06:09:50.507Z,30.08
2023-04-28T06:12:17.742Z,31.60
2023-04-28T06:14:44.816Z,31.95
2023-04-28T06:17:11.924Z,31.25
2023-04-28T06:19:39.039Z,36.00
2023-04-28T06:22:06.513Z,26.25
2023-04-28T06:24:33.796Z,27.95
2023-04-28T06:27:00.805Z,26.25
2023-04-28T06:29:28.147Z,22.77
2023-04-28T06:31:57.864Z,29.73
2023-04-28T06:34:29.127Z,24.17
2023-04-28T06:36:56.382Z,27.67
2023-04-28T06:39:23.606Z,28.85
2023-04-28T06:41:50.705Z,35.35
2023-04-28T06:44:18.010Z,33.65
2023-04-28T06:46:45.922Z,31.48
2023-04-28T06:49:13.139Z,30.58
2023-04-28T06:51:40.255Z,27.23
2023-04-28T06:54:09.717Z,25.52
2023-04-28T06:56:38.577Z,32.67
2023-04-28T06:59:05.827Z,25.77
2023-04-28T07:01:33.030Z,23.90
2023-04-28T07:04:00.365Z,22.67
2023-04-28T07:06:28.021Z,21.88
2023-04-28T07:08:55.391Z,23.42
2023-04-28T07:11:24.741Z,23.45
2023-04-28T07:13:53.304Z,16.85
2023-04-28T07:16:21.839Z,17.30
2023-04-28T07:18:48.960Z,18.00
2023-04-28T07:21:16.113Z,19.10
2023-04-28T07:23:43.605Z,19.25
2023-04-28T07:26:11.791Z,24.75
2023-04-28T07:28:41.769Z,19.33
2023-04-28T07:31:10.234Z,20.33
2023-04-28T07:33:37.391Z,23.55
2023-04-28T07:36:04.796Z,26.48
2023-04-28T07:38:32.253Z,25.67
2023-04-28T07:40:59.361Z,26.98
2023-04-28T07:43:26.534Z,24.70
2023-04-28T07:45:53.717Z,33.53
2023-04-28T07:48:21.250Z,31.45
2023-04-28T07:50:48.479Z,25.23
2023-04-28T07:53:15.568Z,24.33
2023-04-28T07:55:43.462Z,20.75
2023-04-28T07:58:10.598Z,26.95
2023-04-28T08:00:39.164Z,23.42
2023-04-28T08:03:08.209Z,23.95
2023-04-28T08:05:35.960Z,22.90
2023-04-28T08:08:03.119Z,23.65
2023-04-28T08:10:33.642Z,17.48
2023-04-28T08:13:00.870Z,18.35
2023-04-28T08:15:27.997Z,19.98
2023-04-28T08:17:55.370Z,17.13
2023-04-28T08:20:24.591Z,15.75
2023-04-28T08:22:52.110Z,17.98
2023-04-28T08:25:19.707Z,15.82
2023-04-28T08:27:47.982Z,12.23
2023-04-28T08:30:15.126Z,10.73
2023-04-28T08:32:42.781Z,9.30
2023-04-28T08:35:13.479Z,7.40
2023-04-28T08:40:11.339Z,7.38
2023-04-28T08:42:38.575Z,11.25
2023-04-28T08:45:06.377Z,8.73
2023-04-28T08:47:38.591Z,10.68
2023-04-28T08:50:12.870Z,9.18
2023-04-28T08:52:41.125Z,11.15
2023-04-28T08:55:10.102Z,9.00
2023-04-28T08:57:47.273Z,11.80
2023-04-28T09:00:15.169Z,7.47
2023-04-28T09:02:44.036Z,8.98
2023-04-28T09:05:12.370Z,7.72
2023-04-28T09:07:40.378Z,9.40
2023-04-28T09:10:18.649Z,6.70
2023-04-28T09:12:48.025Z,8.05
2023-04-28T09:15:37.867Z,7.88
2023-04-28T09:18:07.217Z,9.17
2023-04-28T09:20:35.662Z,6.78
2023-04-28T09:23:20.120Z,5.50
2023-04-28T09:26:07.920Z,8.18
2023-04-28T09:28:36.906Z,7.53
2023-04-28T09:31:04.294Z,6.68
2023-04-28T09:33:31.665Z,7.88
2023-04-28T09:35:58.810Z,6.53
2023-04-28T09:38:26.310Z,8.93
2023-04-28T09:41:01.990Z,8.20
2023-04-28T09:43:29.543Z,6.18
2023-04-28T09:45:57.540Z,6.47
2023-04-28T09:48:32.329Z,9.05
2023-04-28T09:51:00.515Z,8.05
2023-04-28T09:53:28.031Z,6.68
2023-04-28T09:55:56.239Z,12.32
2023-04-28T09:58:24.332Z,6.32
2023-04-28T10:00:59.934Z,7.40
2023-04-28T10:03:29.566Z,5.32
2023-04-28T10:05:58.550Z,9.95
2023-04-28T10:08:26.279Z,6.05
2023-04-28T10:10:54.851Z,6.40
2023-04-28T10:13:24.018Z,9.73
2023-04-28T10:15:58.699Z,10.07
2023-04-28T10:18:26.132Z,6.35
2023-04-28T10:21:01.304Z,6.63
2023-04-28T10:23:32.966Z,5.18
2023-04-28T10:26:00.233Z,7.45
2023-04-28T10:28:28.166Z,6.00
2023-04-28T10:31:15.051Z,5.93
2023-04-28T10:33:43.169Z,10.52
2023-04-28T10:36:10.646Z,9.82
2023-04-28T10:39:04.156Z,5.28
2023-04-28T10:41:34.650Z,4.82
2023-04-28T10:44:01.753Z,5.80
2023-04-28T10:46:28.998Z,7.18
2023-04-28T10:48:56.468Z,6.07
2023-04-28T10:51:24.538Z,7.38
2023-04-28T10:53:56.793Z,7.47
2023-04-28T10:56:28.975Z,9.00
2023-04-28T10:58:57.045Z,7.78
2023-04-28T11:01:32.526Z,5.97
2023-04-28T11:04:13.789Z,5.57
2023-04-28T11:06:42.285Z,7.32
2023-04-28T11:09:15.730Z,5.38
2023-04-28T11:11:54.742Z,7.18
2023-04-28T11:14:42.176Z,5.88
2023-04-28T11:17:11.512Z,8.95
2023-04-28T11:19:41.844Z,5.50
2023-04-28T11:22:22.176Z,5.63
2023-04-28T11:24:57.629Z,6.80
2023-04-28T11:27:28.330Z,9.65
2023-04-28T11:29:56.051Z,6.53
2023-04-28T11:32:32.521Z,6.97
2023-04-28T11:34:59.778Z,7.47
2023-04-28T11:37:27.443Z,7.65
2023-04-28T11:39:54.801Z,5.38
2023-04-28T11:42:26.273Z,4.63
2023-04-28T11:44:54.435Z,5.20
2023-04-28T11:47:33.703Z,5.50
2023-04-28T11:50:01.712Z,6.45
2023-04-28T11:52:28.889Z,7.20
2023-04-28T11:54:58.188Z,6.65
2023-04-28T11:57:25.723Z,6.40
2023-04-28T11:59:54.145Z,5.22
2023-04-28T12:02:31.098Z,6.72
2023-04-28T12:05:08.025Z,3.58
2023-04-28T12:07:44.602Z,5.80
2023-04-28T12:10:13.834Z,4.57
2023-04-28T12:15:13.072Z,6.10
2023-04-28T12:17:41.726Z,4.63
2023-04-28T12:20:35.063Z,5.40
2023-04-28T12:23:03.129Z,3.75
2023-04-28T12:25:32.606Z,4.00
2023-04-28T12:28:10.428Z,4.37
2023-04-28T12:30:44.282Z,6.28
2023-04-28T12:33:25.493Z,4.50
2023-04-28T12:35:59.050Z,4.82
2023-04-28T12:38:28.430Z,5.43
2023-04-28T12:40:55.676Z,5.20
2023-04-28T12:46:12.873Z,6.05
2023-04-28T12:48:40.177Z,8.20
2023-04-28T12:51:19.166Z,4.53
2023-04-28T12:56:30.304Z,5.68
2023-04-28T12:58:58.780Z,3.95
2023-04-28T13:04:43.805Z,6.32
2023-04-28T13:07:19.506Z,7.15
2023-04-28T13:09:51.191Z,6.47
2023-04-28T13:12:24.626Z,5.05
2023-04-28T13:15:12.895Z,7.55
2023-04-28T13:17:50.903Z,7.50
2023-04-28T13:20:18.761Z,8.25
2023-04-28T13:22:57.960Z,5.65
2023-04-28T13:25:25.403Z,10.52
2023-04-28T13:27:52.781Z,4.15
2023-04-28T13:30:31.096Z,4.78
2023-04-28T13:33:02.035Z,5.78
2023-04-28T13:35:39.192Z,7.80
2023-04-28T13:38:12.478Z,5.40
2023-04-28T13:40:47.505Z,7.93
2023-04-28T13:43:17.601Z,7.72
2023-04-28T13:45:47.626Z,4.57
2023-04-28T13:48:27.107Z,6.88
2023-04-28T13:51:06.544Z,5.28
2023-04-28T13:53:50.079Z,8.20
2023-04-28T13:56:17.554Z,3.38
2023-04-28T13:58:45.137Z,4.90
2023-04-28T14:01:12.508Z,4.72
2023-04-28T14:03:40.764Z,4.05
2023-04-28T14:06:08.508Z,5.60
2023-04-28T14:08:35.622Z,3.47
2023-04-28T14:11:02.835Z,6.60
2023-04-28T14:13:30.991Z,4.78
2023-04-28T14:15:59.808Z,5.57
2023-04-28T14:18:28.136Z,6.15
2023-04-28T14:20:55.935Z,3.70
2023-04-28T14:23:23.493Z,4.28
2023-04-28T14:25:52.080Z,6.45
2023-04-28T14:28:21.654Z,8.02
2023-04-28T14:30:50.276Z,5.53
2023-04-28T14:33:17.564Z,9.57
2023-04-28T14:35:44.582Z,4.57
2023-04-28T14:38:13.490Z,3.80
2023-04-28T14:40:40.742Z,5.65
2023-04-28T14:43:08.119Z,6.55
2023-04-28T14:45:37.158Z,4.13
2023-04-28T14:48:05.107Z,5.60
2023-04-28T14:50:37.111Z,8.20
2023-04-28T14:53:07.324Z,4.28
2023-04-28T14:55:34.620Z,3.78
2023-04-28T14:58:02.044Z,5.28
2023-04-28T15:00:29.867Z,4.85
2023-04-28T15:02:57.686Z,4.72
2023-04-28T15:05:31.031Z,7.47
2023-04-28T15:08:01.538Z,7.93
2023-04-28T15:13:01.844Z,5.03
2023-04-28T15:15:29.400Z,5.47
2023-04-28T15:18:00.913Z,6.80
2023-04-28T15:20:33.087Z,6.03
2023-04-28T15:23:00.712Z,7.57
2023-04-28T15:25:28.064Z,8.18
2023-04-28T15:27:55.470Z,6.32
2023-04-28T15:30:22.698Z,7.20
2023-04-28T15:32:50.033Z,7.15
2023-04-28T15:35:17.222Z,8.45
2023-04-28T15:37:45.432Z,8.30
2023-04-28T15:40:16.240Z,11.65
2023-04-28T15:42:51.902Z,16.33
2023-04-28T15:45:22.156Z,9.02
2023-04-28T15:47:52.550Z,8.27
2023-04-28T15:50:20.378Z,9.05
2023-04-28T15:52:47.992Z,5.90
2023-04-28T15:55:18.968Z,7.57
2023-04-28T15:57:46.823Z,10.65
2023-04-28T16:00:17.067Z,10.98
2023-04-28T16:02:45.080Z,10.13
2023-04-28T16:05:12.753Z,10.10
2023-04-28T16:07:41.175Z,8.23
2023-04-28T16:10:12.621Z,7.90
2023-04-28T16:12:40.075Z,13.43
2023-04-28T16:15:08.759Z,6.78
2023-04-28T16:17:38.090Z,9.73
2023-04-28T16:20:11.829Z,7.80
2023-04-28T16:22:40.271Z,6.13
2023-04-28T16:25:07.770Z,6.68
2023-04-28T16:27:35.826Z,6.95
2023-04-28T16:30:03.546Z,10.15
2023-04-28T16:32:30.903Z,8.27
2023-04-28T16:34:58.667Z,10.77
2023-04-28T16:37:26.293Z,13.27
2023-04-28T16:39:53.521Z,8.98
2023-04-28T16:42:23.437Z,11.98
2023-04-28T16:44:52.736Z,11.13
2023-04-28T16:47:20.758Z,16.27
2023-04-28T16:49:48.861Z,13.73
2023-04-28T16:52:16.972Z,19.13
2023-04-28T16:54:44.399Z,23.13
2023-04-28T16:57:11.534Z,17.90
2023-04-28T16:59:38.579Z,20.70
2023-04-28T17:02:06.809Z,22.67
2023-04-28T17:04:34.453Z,31.05
2023-04-28T17:07:04.762Z,41.35
2023-04-28T17:09:42.801Z,37.25
2023-04-28T17:12:32.379Z,39.75
2023-04-28T17:14:59.440Z,111.35
2023-04-28T17:17:27.474Z,142.82
2023-04-28T17:19:54.756Z,158.63
2023-04-28T17:22:22.627Z,127.72
2023-04-28T17:24:50.263Z,116.72
2023-04-28T17:27:17.416Z,104.03
2023-04-28T17:29:44.635Z,73.10
2023-04-28T17:32:12.025Z,62.95
2023-04-28T17:34:39.178Z,57.72
2023-04-28T17:37:06.498Z,52.33
2023-04-28T17:39:33.500Z,42.92
2023-04-28T17:42:02.705Z,39.65
2023-04-28T17:44:29.800Z,42.20
2023-04-28T17:46:57.266Z,31.38
2023-04-28T17:49:24.585Z,29.80
2023-04-28T17:51:51.774Z,28.63
2023-04-28T17:54:18.772Z,26.27
2023-04-28T17:56:46.313Z,30.95
2023-04-28T17:59:14.761Z,32.70
2023-04-28T18:01:41.877Z,28.25
2023-04-28T18:04:09.026Z,25.95
2023-04-28T18:06:36.316Z,23.00
2023-04-28T18:09:03.687Z,24.70
2023-04-28T18:11:30.755Z,24.73
2023-04-28T18:13:58.923Z,24.35
2023-04-28T18:16:26.643Z,22.85
2023-04-28T18:18:54.306Z,30.88
2023-04-28T18:21:21.507Z,30.70
2023-04-28T18:23:48.957Z,32.65
2023-04-28T18:26:19.239Z,34.13
2023-04-28T18:28:48.295Z,30.95
2023-04-28T18:31:15.477Z,33.65
2023-04-28T18:33:42.805Z,32.80
2023-04-28T18:36:10.195Z,42.03
2023-04-28T18:38:37.351Z,55.20
2023-04-28T18:41:15.008Z,60.13
2023-04-28T18:43:42.892Z,58.22
2023-04-28T18:46:10.200Z,70.57
2023-04-28T18:48:38.079Z,67.00
2023-04-28T18:51:05.721Z,72.35
2023-04-28T18:53:33.430Z,69.15
2023-04-28T18:56:00.673Z,74.05
2023-04-28T18:58:28.283Z,68.75
2023-04-28T19:00:55.598Z,63.35
2023-04-28T19:03:23.713Z,61.42
2023-04-28T19:05:51.298Z,58.10
2023-04-28T19:08:18.518Z,56.88
2023-04-28T19:10:45.902Z,60.15
2023-04-28T19:13:13.720Z,64.28
2023-04-28T19:15:40.945Z,58.35
2023-04-28T19:18:08.250Z,58.95
2023-04-28T19:20:42.471Z,55.78
2023-04-28T19:23:09.588Z,57.10
2023-04-28T19:25:37.143Z,57.25
2023-04-28T19:28:04.574Z,47.97
2023-04-28T19:30:34.692Z,51.38
2023-04-28T19:33:01.996Z,78.40
2023-04-28T19:35:29.237Z,75.07
2023-04-28T19:37:56.421Z,81.18
2023-04-28T19:40:23.581Z,66.78
2023-04-28T19:42:52.845Z,60.17
2023-04-28T19:45:20.979Z,52.30
2023-04-28T19:47:48.163Z,50.95
2023-04-28T19:50:15.942Z,45.60
2023-04-28T19:52:43.056Z,44.55
2023-04-28T19:55:11.265Z,40.25
2023-04-28T19:57:38.516Z,42.47
2023-04-28T20:00:06.353Z,48.30
2023-04-28T20:02:33.728Z,55.95
2023-04-28T20:05:01.120Z,66.35
2023-04-28T20:07:28.389Z,58.95
2023-04-28T20:09:56.444Z,53.83
2023-04-28T20:12:23.720Z,43.63
2023-04-28T20:14:54.045Z,42.28
2023-04-28T20:17:21.155Z,53.88
2023-04-28T20:19:48.323Z,46.25
2023-04-28T20:22:15.627Z,44.17
2023-04-28T20:24:43.751Z,47.13
2023-04-28T20:27:12.328Z,43.08
2023-04-28T20:29:39.791Z,43.75
2023-04-28T20:32:07.038Z,45.95
2023-04-28T20:34:37.167Z,42.95
2023-04-28T20:37:06.882Z,52.08
2023-04-28T20:39:34.042Z,66.27
2023-04-28T20:42:02.108Z,64.50
2023-04-28T20:44:29.214Z,118.65
2023-04-28T20:46:56.446Z,106.82
2023-04-28T20:49:24.744Z,90.63
2023-04-28T20:51:52.201Z,81.70
2023-04-28T20:54:19.388Z,80.95
2023-04-28T20:56:46.622Z,76.82
2023-04-28T20:59:13.659Z,78.22
2023-04-28T21:01:41.452Z,71.30
2023-04-28T21:04:09.068Z,68.22
2023-04-28T21:06:36.737Z,64.68
2023-04-28T21:09:04.056Z,56.63
2023-04-28T21:11:31.383Z,58.78
2023-04-28T21:13:58.789Z,63.50
2023-04-28T21:16:26.119Z,68.95
2023-04-28T21:18:54.758Z,73.55
2023-04-28T21:21:22.006Z,67.55
2023-04-28T21:23:49.788Z,76.65
2023-04-28T21:26:17.029Z,75.13
2023-04-28T21:28:44.347Z,75.53
2023-04-28T21:31:11.672Z,72.68
2023-04-28T21:33:39.193Z,71.47
2023-04-28T21:36:08.197Z,72.15
2023-04-28T21:38:37.025Z,65.97
2023-04-28T21:41:04.256Z,61.03
2023-04-28T21:43:31.358Z,60.10
2023-04-28T21:45:58.477Z,50.03
2023-04-28T21:48:25.593Z,55.65
2023-04-28T21:50:52.762Z,54.63
2023-04-28T21:53:20.688Z,55.90
2023-04-28T21:55:48.092Z,51.15
2023-04-28T21:58:15.425Z,50.85
2023-04-28T22:00:48.716Z,49.13
2023-04-28T22:03:17.246Z,51.50
2023-04-28T22:05:44.969Z,54.17
2023-04-28T22:08:12.596Z,47.60
2023-04-28T22:10:40.425Z,49.35
2023-04-28T22:13:07.580Z,54.55
2023-04-28T22:15:34.826Z,50.15
2023-04-28T22:18:02.264Z,51.63
2023-04-28T22:20:29.627Z,47.10
2023-04-28T22:22:57.887Z,50.53
2023-04-28T22:25:25.163Z,46.13
2023-04-28T22:27:52.354Z,46.78
2023-04-28T22:30:19.777Z,53.90
2023-04-28T22:32:47.717Z,65.25
2023-04-28T22:35:16.925Z,55.30
2023-04-28T22:37:44.188Z,57.15
2023-04-28T22:40:11.713Z,58.80
2023-04-28T22:42:39.663Z,60.13
2023-04-28T22:45:07.233Z,53.28
2023-04-28T22:47:35.046Z,59.20
2023-04-28T22:50:05.996Z,56.22
2023-04-28T22:52:33.789Z,56.70
2023-04-28T22:55:01.029Z,60.78
2023-04-28T22:57:28.285Z,61.63
2023-04-28T22:59:55.566Z,63.08
2023-04-28T23:02:23.331Z,59.63
2023-04-28T23:04:51.480Z,56.88
2023-04-28T23:07:18.603Z,57.20
2023-04-28T23:09:45.842Z,65.93
2023-04-28T23:12:12.989Z,61.10
2023-04-28T23:14:40.090Z,58.03
2023-04-28T23:17:07.350Z,55.30
2023-04-28T23:19:39.425Z,49.28
2023-04-28T23:22:07.821Z,46.63
2023-04-28T23:24:37.191Z,46.35
2023-04-28T23:27:04.344Z,36.88
2023-04-28T23:29:31.644Z,35.33
2023-04-28T23:31:59.000Z,39.78
2023-04-28T23:34:26.490Z,40.53
2023-04-28T23:36:53.689Z,38.95
2023-04-28T23:39:20.754Z,41.97
2023-04-28T23:41:47.831Z,41.28
2023-04-28T23:44:15.073Z,36.90
2023-04-28T23:46:42.113Z,38.30
2023-04-28T23:49:09.310Z,41.10
2023-04-28T23:51:37.722Z,45.05
2023-04-28T23:54:04.805Z,37.92
2023-04-28T23:56:32.035Z,37.67
2023-04-28T23:58:59.304Z,42.75
